Time;durP1;ratioP1;P1;durP2;ratioP2;P2;SDS_P1;SDS_P2;PMS_P1;PMS_P2;Temp;Humidity;BMP_temperature;BMP_pressure;BME280_temperature;BME280_humidity;BME280_pressure;Samples;Min_cycle;Max_cycle;Signal;HPM_P1;HPM_P2
2022/01/26 00:05:50;;;;;;;50.70;20.15;;;2.70;99.90;;;;;;12556766;28;20064;-40
2022/01/26 00:12:05;;;;;;;49.83;20.92;;;2.70;99.90;;;;;;12547104;28;20083;-36
2022/01/26 00:18:10;;;;;;;50.05;20.80;;;2.60;99.90;;;;;;12542030;28;20541;-38
2022/01/26 00:24:53;;;;;;;47.08;20.23;;;2.60;99.90;;;;;;12554319;28;20453;-37
2022/01/26 00:43:52;;;;;;;55.58;21.90;;;2.60;99.90;;;;;;12586398;28;20087;-37
2022/01/26 00:49:59;;;;;;;56.53;22.88;;;2.70;99.90;;;;;;12591149;28;20122;-36
2022/01/26 00:56:03;;;;;;;57.30;23.60;;;2.50;99.90;;;;;;12595516;28;20472;-36
2022/01/26 01:02:05;;;;;;;56.25;24.38;;;2.40;99.90;;;;;;12591617;28;20048;-42
2022/01/26 01:08:13;;;;;;;55.58;23.20;;;2.40;99.90;;;;;;12591280;28;20126;-40
2022/01/26 01:14:17;;;;;;;55.13;23.25;;;2.50;99.90;;;;;;12592675;28;20048;-36
2022/01/26 01:32:52;;;;;;;57.55;22.70;;;2.50;99.90;;;;;;12598986;28;20139;-39
2022/01/26 01:38:55;;;;;;;59.17;22.17;;;2.50;99.90;;;;;;12605961;28;20052;-40
2022/01/26 01:44:58;;;;;;;56.58;22.33;;;2.40;99.90;;;;;;12592613;28;20481;-40
2022/01/26 01:51:05;;;;;;;58.35;23.73;;;2.50;99.90;;;;;;12578490;28;20136;-36
2022/01/26 01:57:08;;;;;;;61.80;24.85;;;2.40;99.90;;;;;;12601470;28;20071;-40
2022/01/26 02:03:10;;;;;;;61.80;24.10;;;2.40;99.90;;;;;;12587363;28;20159;-39
2022/01/26 02:09:12;;;;;;;58.40;23.65;;;2.40;99.90;;;;;;12599968;28;20101;-40
2022/01/26 02:15:26;;;;;;;63.55;23.85;;;2.30;99.90;;;;;;12595691;28;20055;-36
2022/01/26 03:00:11;;;;;;;64.03;21.13;;;2.10;99.90;;;;;;12602909;28;20049;-40
2022/01/26 03:06:18;;;;;;;65.72;21.73;;;2.00;99.90;;;;;;12599193;28;20050;-39
2022/01/26 03:12:31;;;;;;;72.47;23.65;;;2.00;99.90;;;;;;12583262;28;20040;-36
2022/01/26 03:37:08;;;;;;;79.93;25.85;;;2.10;99.90;;;;;;12596029;28;20048;-37
2022/01/26 03:43:10;;;;;;;72.13;24.70;;;2.00;99.90;;;;;;12594367;28;20130;-40
2022/01/26 03:49:12;;;;;;;81.53;24.92;;;2.00;99.90;;;;;;12594223;28;20062;-41
2022/01/26 03:55:15;;;;;;;70.15;23.40;;;2.00;99.90;;;;;;12594340;28;20105;-40
2022/01/26 04:01:22;;;;;;;77.00;26.13;;;2.10;99.90;;;;;;12596239;28;20135;-40
2022/01/26 04:07:36;;;;;;;75.57;24.73;;;2.00;99.90;;;;;;12592766;28;20477;-41
2022/01/26 04:14:01;;;;;;;75.05;24.95;;;2.00;99.90;;;;;;12595950;28;20063;-40
2022/01/26 04:20:14;;;;;;;68.43;22.92;;;2.00;99.90;;;;;;12599775;28;20044;-42
2022/01/26 04:26:35;;;;;;;74.80;24.67;;;2.00;99.90;;;;;;12608938;28;20140;-37
2022/01/26 04:32:45;;;;;;;74.32;25.52;;;2.00;99.90;;;;;;12599533;28;20122;-38
2022/01/26 04:38:59;;;;;;;85.70;26.17;;;1.90;99.90;;;;;;12612340;28;20093;-37
2022/01/26 04:45:11;;;;;;;84.85;25.67;;;2.00;99.90;;;;;;12602080;28;20390;-37
2022/01/26 04:51:24;;;;;;;80.35;25.10;;;1.90;99.90;;;;;;12588134;28;20041;-40
2022/01/26 04:57:33;;;;;;;76.85;25.58;;;2.00;99.90;;;;;;12595293;28;20063;-40
2022/01/26 05:03:45;;;;;;;82.35;26.13;;;2.00;99.90;;;;;;12600218;28;20079;-37
2022/01/26 05:09:57;;;;;;;80.97;26.02;;;2.00;99.90;;;;;;12597129;28;20078;-40
2022/01/26 05:16:18;;;;;;;80.68;26.52;;;2.10;99.90;;;;;;12623783;28;20061;-36
2022/01/26 05:22:33;;;;;;;78.38;26.05;;;2.00;99.90;;;;;;12602299;28;20051;-37
2022/01/26 05:28:47;;;;;;;86.90;29.23;;;2.00;99.90;;;;;;12612757;28;20044;-36
2022/01/26 05:35:00;;;;;;;77.18;25.67;;;2.10;99.90;;;;;;12597761;28;20051;-36
2022/01/26 05:41:13;;;;;;;;;;;2.10;99.90;;;;;;12613150;28;20045;-36
2022/01/26 05:47:21;;;;;;;91.78;27.15;;;2.00;99.90;;;;;;12604230;28;19924;-36
2022/01/26 05:53:24;;;;;;;81.90;25.42;;;1.90;99.90;;;;;;12597522;28;20036;-37
2022/01/26 05:59:32;;;;;;;85.45;26.73;;;1.80;99.90;;;;;;12598726;28;20079;-39
2022/01/26 06:05:43;;;;;;;91.63;28.20;;;1.80;99.90;;;;;;12610532;28;20055;-37
2022/01/26 06:11:48;;;;;;;101.22;32.00;;;1.80;99.90;;;;;;12594793;28;20096;-37
2022/01/26 06:17:51;;;;;;;98.25;32.85;;;1.70;99.90;;;;;;12602977;28;20080;-41
2022/01/26 06:23:54;;;;;;;110.50;35.08;;;1.70;99.90;;;;;;12587690;28;20052;-41
2022/01/26 06:29:56;;;;;;;109.82;34.95;;;1.70;99.90;;;;;;12604896;28;20076;-40
2022/01/26 06:36:00;;;;;;;107.00;36.75;;;1.70;99.90;;;;;;12599113;28;20049;-36
2022/01/26 06:42:10;;;;;;;107.40;35.75;;;1.80;99.90;;;;;;12603557;28;20190;-37
2022/01/26 06:54:16;;;;;;;110.72;38.25;;;1.80;99.90;;;;;;12596948;28;20139;-40
2022/01/26 07:00:20;;;;;;;111.60;38.47;;;1.70;99.90;;;;;;12601966;28;20547;-36
2022/01/26 07:06:22;;;;;;;121.70;41.33;;;1.70;99.90;;;;;;12598400;28;20198;-40
2022/01/26 07:12:26;;;;;;;113.18;37.72;;;1.60;99.90;;;;;;12600416;28;20081;-40
2022/01/26 07:24:52;;;;;;;113.07;36.78;;;1.70;99.90;;;;;;12587563;28;20087;-37
2022/01/26 07:30:54;;;;;;;115.43;36.67;;;1.70;99.90;;;;;;12598610;28;20127;-36
2022/01/26 07:37:02;;;;;;;117.93;35.17;;;1.70;99.90;;;;;;12597230;28;20102;-41
2022/01/26 07:43:04;;;;;;;102.93;31.55;;;1.80;99.90;;;;;;12599182;28;20139;-41
2022/01/26 07:49:07;;;;;;;108.47;31.42;;;1.70;99.90;;;;;;12602726;28;20416;-40
2022/01/26 07:55:15;;;;;;;104.13;30.73;;;1.60;99.90;;;;;;12600118;28;20067;-41
2022/01/26 08:01:18;;;;;;;102.15;28.90;;;1.50;99.90;;;;;;12598418;28;20555;-36
2022/01/26 08:07:21;;;;;;;103.60;31.20;;;1.50;99.90;;;;;;12599240;28;20055;-39
2022/01/26 08:13:24;;;;;;;104.50;31.52;;;1.50;99.90;;;;;;12598968;28;20056;-40
2022/01/26 08:19:26;;;;;;;104.43;31.52;;;1.40;99.90;;;;;;12600014;28;20146;-36
2022/01/26 08:25:29;;;;;;;99.50;31.08;;;1.40;99.90;;;;;;12593803;28;20040;-40
2022/01/26 08:31:31;;;;;;;99.72;33.63;;;1.50;99.90;;;;;;12600069;28;20048;-40
2022/01/26 08:37:33;;;;;;;101.28;31.75;;;1.50;99.90;;;;;;12604018;28;20501;-36
2022/01/26 08:43:35;;;;;;;101.88;31.52;;;1.50;99.90;;;;;;12608663;28;20055;-40
2022/01/26 08:49:38;;;;;;;106.07;32.80;;;1.40;99.90;;;;;;12609915;28;20062;-36
2022/01/26 08:55:40;;;;;;;111.38;35.70;;;1.40;99.90;;;;;;12606403;28;20066;-36
2022/01/26 09:01:43;;;;;;;107.00;35.03;;;1.50;99.90;;;;;;12603133;28;20097;-40
2022/01/26 09:07:49;;;;;;;104.63;33.55;;;1.50;99.90;;;;;;12605403;28;20044;-41
2022/01/26 09:13:57;;;;;;;99.65;34.13;;;1.50;99.90;;;;;;12601904;28;20049;-40
2022/01/26 09:20:00;;;;;;;111.20;35.00;;;1.50;99.90;;;;;;12603825;28;20048;-36
2022/01/26 09:26:03;;;;;;;114.75;35.35;;;1.40;99.90;;;;;;12601886;28;20110;-40
2022/01/26 09:32:07;;;;;;;122.45;37.50;;;1.40;99.90;;;;;;12602402;28;20095;-40
2022/01/26 09:38:10;;;;;;;114.63;35.83;;;1.40;99.90;;;;;;12607505;28;20048;-42
2022/01/26 09:44:13;;;;;;;116.45;36.10;;;1.50;99.90;;;;;;12603660;28;20044;-36
2022/01/26 09:50:21;;;;;;;100.72;33.13;;;1.50;99.90;;;;;;12611140;28;20411;-36
2022/01/26 09:56:24;;;;;;;108.90;35.10;;;1.60;99.90;;;;;;12605768;28;20058;-40
2022/01/26 10:02:29;;;;;;;104.95;34.55;;;1.60;99.90;;;;;;12587922;28;20148;-39
2022/01/26 10:21:18;;;;;;;105.50;33.75;;;1.80;99.90;;;;;;12605407;28;20048;-36
2022/01/26 10:27:21;;;;;;;99.80;32.05;;;1.80;99.90;;;;;;12604966;28;20147;-40
2022/01/26 10:33:23;;;;;;;113.57;36.03;;;1.90;99.90;;;;;;12609165;28;20425;-40
2022/01/26 10:39:38;;;;;;;108.18;33.50;;;1.80;99.90;;;;;;12598920;28;20290;-36
2022/01/26 10:46:06;;;;;;;112.15;34.80;;;1.80;99.90;;;;;;12601440;28;20068;-37
2022/01/26 10:52:54;;;;;;;107.20;34.33;;;1.70;99.90;;;;;;12600783;28;20048;-40
2022/01/26 10:58:43;;;;;;;114.45;37.40;;;1.70;99.90;;;;;;12600111;28;20112;-39
2022/01/26 11:04:49;;;;;;;110.50;34.85;;;1.70;99.90;;;;;;12591953;28;20044;-37
2022/01/26 11:10:52;;;;;;;117.75;36.25;;;1.80;99.90;;;;;;12605602;28;20417;-36
2022/01/26 11:17:01;;;;;;;123.35;36.72;;;1.70;99.90;;;;;;12602830;28;20048;-40
2022/01/26 11:23:05;;;;;;;119.72;37.38;;;1.80;99.90;;;;;;12607082;28;20063;-41
2022/01/26 11:29:17;;;;;;;122.07;38.28;;;1.80;99.90;;;;;;12603233;28;20171;-40
2022/01/26 11:35:21;;;;;;;125.95;38.58;;;1.70;99.90;;;;;;12594402;28;20105;-37
2022/01/26 11:48:09;;;;;;;124.90;38.40;;;1.90;99.90;;;;;;12601529;28;20474;-40
2022/01/26 11:54:32;;;;;;;121.50;37.45;;;1.90;99.90;;;;;;12604519;28;20059;-41
2022/01/26 12:00:52;;;;;;;131.27;41.08;;;1.90;99.90;;;;;;12605587;28;20052;-41
2022/01/26 12:07:10;;;;;;;118.82;37.63;;;1.90;99.90;;;;;;12593644;28;20504;-37
2022/01/26 12:13:19;;;;;;;130.80;41.15;;;1.90;99.90;;;;;;12596025;28;20412;-40
2022/01/26 12:19:32;;;;;;;130.15;39.67;;;1.90;99.90;;;;;;12592621;28;20048;-41
2022/01/26 12:38:22;;;;;;;135.43;39.90;;;2.00;99.90;;;;;;12606416;28;20052;-41
2022/01/26 12:44:27;;;;;;;137.95;41.58;;;2.10;99.90;;;;;;12601934;28;20081;-40
2022/01/26 12:50:33;;;;;;;136.27;42.13;;;2.20;99.90;;;;;;12588502;28;20094;-38
2022/01/26 12:56:43;;;;;;;127.88;38.22;;;2.20;99.90;;;;;;12594892;28;20059;-37
2022/01/26 13:02:53;;;;;;;143.50;42.60;;;2.20;99.90;;;;;;12607911;28;20052;-41
2022/01/26 13:09:01;;;;;;;144.30;42.08;;;2.10;99.90;;;;;;12607888;28;20181;-41
2022/01/26 13:15:28;;;;;;;142.82;41.30;;;2.10;99.90;;;;;;12605964;28;20048;-38
2022/01/26 13:28:11;;;;;;;142.45;41.25;;;2.10;99.90;;;;;;12603391;28;20303;-40
2022/01/26 13:40:49;;;;;;;151.25;42.38;;;2.20;99.90;;;;;;12610182;28;20123;-40
2022/01/26 13:47:25;;;;;;;145.25;41.90;;;2.20;99.90;;;;;;12612304;28;20510;-36
2022/01/26 13:59:53;;;;;;;138.57;39.78;;;2.20;99.90;;;;;;12610126;28;20056;-37
2022/01/26 14:05:58;;;;;;;130.43;36.88;;;2.20;99.90;;;;;;12590987;28;20079;-41
2022/01/26 14:12:05;;;;;;;124.15;37.53;;;2.30;99.90;;;;;;12609419;28;20048;-40
2022/01/26 14:24:39;;;;;;;110.05;32.88;;;2.40;99.90;;;;;;12610228;28;20063;-37
2022/01/26 16:07:25;;;;;;;114.43;33.10;;;2.30;99.90;;;;;;12601007;28;20570;-40
2022/01/26 17:12:11;;;;;;;122.05;32.97;;;2.20;99.90;;;;;;12605519;28;20048;-37
2022/01/26 18:04:11;;;;;;;112.38;29.58;;;2.30;99.90;;;;;;12598350;28;20047;-41
2022/01/26 18:16:50;;;;;;;116.53;30.10;;;2.40;99.90;;;;;;12601559;28;20601;-37
2022/01/26 18:55:11;;;;;;;118.65;31.08;;;2.40;99.90;;;;;;12597880;28;20055;-37
2022/01/26 19:01:14;;;;;;;112.35;30.25;;;2.40;99.90;;;;;;12590220;28;20102;-41
2022/01/26 19:07:17;;;;;;;109.32;30.33;;;2.40;99.90;;;;;;12599933;28;20050;-41
2022/01/26 19:13:26;;;;;;;108.30;30.50;;;2.50;99.90;;;;;;12601559;28;20123;-41
2022/01/26 19:25:51;;;;;;;100.28;29.75;;;2.50;99.90;;;;;;12602814;28;20088;-36
2022/01/26 19:50:48;;;;;;;110.95;33.60;;;2.50;99.90;;;;;;12597967;28;20048;-37
2022/01/26 19:56:51;;;;;;;114.60;32.70;;;2.50;99.90;;;;;;12599052;28;20083;-40
2022/01/26 20:02:54;;;;;;;115.40;33.53;;;2.60;99.90;;;;;;12603712;28;20048;-40
2022/01/26 20:09:04;;;;;;;121.30;34.67;;;2.60;99.90;;;;;;12599574;28;20059;-38
2022/01/26 20:15:08;;;;;;;119.28;35.05;;;2.60;99.90;;;;;;12596849;28;20093;-37
2022/01/26 20:21:10;;;;;;;114.78;34.22;;;2.60;99.90;;;;;;12599454;28;20048;-40
2022/01/26 20:27:17;;;;;;;113.03;32.22;;;2.60;99.90;;;;;;12556348;28;20488;-38
2022/01/26 20:33:20;;;;;;;112.45;33.72;;;2.70;99.90;;;;;;12548581;28;20037;-41
2022/01/26 20:39:22;;;;;;;113.05;35.40;;;2.70;99.90;;;;;;12547757;28;20536;-36
2022/01/26 20:45:27;;;;;;;116.93;32.65;;;2.70;99.90;;;;;;12551347;28;20127;-41
2022/01/26 20:51:29;;;;;;;114.13;33.83;;;2.70;99.90;;;;;;12551591;28;20052;-40
2022/01/26 20:57:32;;;;;;;110.78;33.00;;;2.70;99.90;;;;;;12551633;28;20041;-41
2022/01/26 21:03:35;;;;;;;120.38;33.55;;;2.70;99.90;;;;;;12543529;28;20052;-41
2022/01/26 21:09:39;;;;;;;119.65;34.30;;;2.70;99.90;;;;;;12545548;28;20049;-41
2022/01/26 21:15:42;;;;;;;113.13;34.60;;;2.70;99.90;;;;;;12548342;28;20416;-37
2022/01/26 21:21:47;;;;;;;115.35;35.53;;;2.70;99.90;;;;;;12550324;28;20087;-36
2022/01/26 21:28:09;;;;;;;123.65;36.45;;;2.70;99.90;;;;;;12596828;28;20048;-40
2022/01/26 21:34:12;;;;;;;113.68;34.40;;;2.70;99.90;;;;;;12596110;28;20678;-44
2022/01/26 21:40:15;;;;;;;111.03;33.47;;;2.70;99.90;;;;;;12592914;28;20064;-36
2022/01/26 21:46:18;;;;;;;110.87;33.93;;;2.70;99.90;;;;;;12598989;28;20071;-41
2022/01/26 21:52:23;;;;;;;110.40;32.90;;;2.70;99.90;;;;;;12605634;28;20051;-40
2022/01/26 21:58:27;;;;;;;94.53;32.22;;;2.70;99.90;;;;;;12613286;28;20473;-41
2022/01/26 22:04:30;;;;;;;92.03;31.37;;;2.70;99.90;;;;;;12579900;28;20074;-37
2022/01/26 22:10:32;;;;;;;92.97;32.55;;;2.80;99.90;;;;;;12600715;28;20099;-37
2022/01/26 22:16:35;;;;;;;92.85;31.88;;;2.80;99.90;;;;;;12604273;28;20076;-41
2022/01/26 22:22:38;;;;;;;93.88;31.02;;;2.80;99.90;;;;;;12603629;28;20496;-37
2022/01/26 22:28:47;;;;;;;89.38;30.67;;;2.80;99.90;;;;;;12607428;28;20101;-41
2022/01/26 22:34:49;;;;;;;85.95;29.30;;;2.80;99.90;;;;;;12596044;28;20757;-36
2022/01/26 22:40:55;;;;;;;;;;;2.80;99.90;;;;;;12603033;28;20496;-41
2022/01/26 22:46:58;;;;;;;81.93;27.70;;;2.80;99.90;;;;;;12607600;28;19924;-41
2022/01/26 22:53:00;;;;;;;91.10;29.95;;;2.70;99.90;;;;;;12607815;28;20408;-41
2022/01/26 22:59:03;;;;;;;87.18;29.58;;;2.70;99.90;;;;;;12604519;28;20055;-41
2022/01/26 23:11:20;;;;;;;81.63;29.58;;;2.70;99.90;;;;;;12602476;28;20052;-36
2022/01/26 23:17:24;;;;;;;84.00;28.17;;;2.70;99.90;;;;;;12594180;28;20055;-41
2022/01/26 23:23:29;;;;;;;81.38;27.83;;;2.70;99.90;;;;;;12602881;28;20053;-36
2022/01/26 23:30:06;;;;;;;;;;;2.70;99.90;;;;;;12605289;28;20097;-42
2022/01/26 23:36:26;;;;;;;80.65;28.35;;;2.70;99.90;;;;;;12598317;28;20047;-37
